Time;durP1;ratioP1;P1;durP2;ratioP2;P2;SDS_P1;SDS_P2;PMS_P1;PMS_P2;Temp;Humidity;BMP_temperature;BMP_pressure;BME280_temperature;BME280_humidity;BME280_pressure;Samples;Min_cycle;Max_cycle;Signal;HPM_P1;HPM_P2
2021/10/04 00:00:30;;;;;;;5.60;4.83;;;13.80;99.90;;;;;;5106312;27;20192;-76
2021/10/04 00:02:57;;;;;;;6.80;5.03;;;13.80;99.90;;;;;;5114322;27;20224;-75
2021/10/04 00:05:27;;;;;;;6.73;5.10;;;13.80;99.90;;;;;;5111438;27;20300;-75
2021/10/04 00:07:54;;;;;;;7.23;5.90;;;13.80;99.90;;;;;;5104233;27;20200;-76
2021/10/04 00:10:22;;;;;;;6.33;5.40;;;13.70;99.90;;;;;;5109672;28;20204;-75
2021/10/04 00:12:50;;;;;;;5.63;4.50;;;13.80;99.90;;;;;;5114562;27;20200;-75
2021/10/04 00:15:20;;;;;;;5.53;4.33;;;13.80;99.90;;;;;;5106898;28;20737;-76
2021/10/04 00:17:48;;;;;;;4.93;4.53;;;13.80;99.90;;;;;;5111834;27;20220;-75
2021/10/04 00:20:17;;;;;;;5.53;4.47;;;13.80;99.90;;;;;;5109979;27;20601;-76
2021/10/04 00:22:46;;;;;;;6.27;5.47;;;13.80;99.90;;;;;;5109579;28;20549;-76
2021/10/04 00:25:14;;;;;;;5.47;4.67;;;13.80;99.90;;;;;;5111056;27;20739;-76
2021/10/04 00:27:41;;;;;;;7.83;5.70;;;13.80;99.90;;;;;;5110622;28;20216;-76
2021/10/04 00:30:10;;;;;;;6.47;5.30;;;13.80;99.90;;;;;;5103851;28;20564;-76
2021/10/04 00:32:40;;;;;;;5.77;4.87;;;13.80;99.90;;;;;;5106928;28;20237;-76
2021/10/04 00:35:14;;;;;;;5.60;5.00;;;13.80;99.90;;;;;;5109518;28;20208;-76
2021/10/04 00:37:41;;;;;;;8.00;5.93;;;13.80;99.90;;;;;;5109290;28;20216;-76
2021/10/04 00:40:13;;;;;;;5.13;4.63;;;13.80;99.90;;;;;;5112010;27;20202;-76
2021/10/04 00:42:41;;;;;;;6.10;4.73;;;13.90;99.90;;;;;;5106645;28;20197;-76
2021/10/04 00:45:09;;;;;;;6.70;5.70;;;13.80;99.90;;;;;;5108394;27;20213;-76
2021/10/04 00:47:38;;;;;;;6.50;4.93;;;13.80;99.90;;;;;;5108221;27;20192;-76
2021/10/04 00:50:07;;;;;;;5.83;4.30;;;13.80;99.90;;;;;;5112494;27;20216;-76
2021/10/04 00:52:34;;;;;;;4.30;3.90;;;13.90;99.90;;;;;;5112718;27;20654;-76
2021/10/04 00:55:01;;;;;;;5.80;5.20;;;13.90;99.90;;;;;;5105012;28;20209;-76
2021/10/04 00:57:30;;;;;;;4.40;4.00;;;13.90;99.90;;;;;;5108521;28;20223;-76
2021/10/04 00:59:58;;;;;;;4.83;4.00;;;13.90;99.90;;;;;;5108647;28;20670;-76
2021/10/04 01:02:25;;;;;;;4.60;4.10;;;13.90;99.90;;;;;;5107713;28;20221;-76
2021/10/04 01:04:52;;;;;;;4.27;3.87;;;13.90;99.90;;;;;;5117449;27;20633;-76
2021/10/04 01:07:19;;;;;;;5.23;4.40;;;13.90;99.90;;;;;;5107572;27;20200;-76
2021/10/04 01:09:46;;;;;;;4.80;4.30;;;14.00;99.90;;;;;;5109944;27;20669;-76
2021/10/04 01:12:14;;;;;;;3.83;3.53;;;14.00;99.90;;;;;;5113552;27;20217;-76
2021/10/04 01:14:43;;;;;;;6.13;4.00;;;14.00;99.90;;;;;;5110755;27;20272;-76
2021/10/04 01:17:10;;;;;;;4.10;3.70;;;14.00;99.90;;;;;;5117259;27;20210;-76
2021/10/04 01:19:40;;;;;;;4.30;3.57;;;14.00;99.90;;;;;;5108489;27;20683;-76
2021/10/04 01:22:08;;;;;;;4.63;4.17;;;14.00;99.90;;;;;;5106723;28;20198;-76
2021/10/04 01:24:36;;;;;;;4.07;3.67;;;14.00;99.90;;;;;;5108327;28;20200;-76
2021/10/04 01:27:05;;;;;;;7.33;4.70;;;14.00;99.90;;;;;;5107822;28;20615;-76
2021/10/04 01:29:32;;;;;;;4.43;3.93;;;14.00;99.90;;;;;;5106821;28;20295;-76
2021/10/04 01:31:59;;;;;;;4.40;3.93;;;14.00;99.90;;;;;;5109614;27;20692;-76
2021/10/04 01:34:26;;;;;;;4.43;3.53;;;13.70;99.90;;;;;;5107937;28;20201;-76
2021/10/04 01:36:54;;;;;;;3.57;3.27;;;14.00;99.90;;;;;;5109916;27;20202;-76
2021/10/04 01:39:22;;;;;;;3.67;3.17;;;14.00;99.90;;;;;;5107751;28;20666;-76
2021/10/04 01:41:49;;;;;;;3.60;3.30;;;14.00;99.90;;;;;;5105576;28;20214;-76
2021/10/04 01:44:16;;;;;;;3.07;2.87;;;14.10;99.90;;;;;;5106120;28;20206;-76
2021/10/04 01:46:43;;;;;;;5.50;3.83;;;14.10;99.90;;;;;;5109820;28;20201;-76
2021/10/04 01:49:10;;;;;;;6.23;3.50;;;14.10;99.90;;;;;;5094794;28;20198;-76
2021/10/04 01:51:37;;;;;;;3.13;2.90;;;14.10;99.90;;;;;;5108865;28;20209;-76
2021/10/04 01:54:04;;;;;;;3.70;3.10;;;14.10;99.90;;;;;;5111190;27;20592;-76
2021/10/04 01:56:32;;;;;;;3.20;2.90;;;14.10;99.90;;;;;;5108129;27;20630;-76
2021/10/04 01:59:00;;;;;;;2.70;2.50;;;14.20;99.90;;;;;;5109862;27;20230;-76
2021/10/04 02:01:27;;;;;;;3.10;2.90;;;14.20;99.90;;;;;;5108342;27;20235;-76
2021/10/04 02:03:56;;;;;;;2.93;2.73;;;14.20;99.90;;;;;;5109900;27;20591;-75
2021/10/04 02:06:23;;;;;;;3.30;3.00;;;14.20;99.90;;;;;;5107500;28;20623;-75
2021/10/04 02:08:50;;;;;;;2.60;2.40;;;14.20;99.90;;;;;;5107956;28;20260;-76
2021/10/04 02:11:17;;;;;;;3.30;3.10;;;14.20;99.90;;;;;;5106988;28;20679;-76
2021/10/04 02:13:45;;;;;;;3.33;3.10;;;14.20;99.90;;;;;;5110583;27;20629;-75
2021/10/04 02:16:12;;;;;;;3.20;2.90;;;14.10;99.90;;;;;;5106969;28;20197;-76
2021/10/04 02:18:39;;;;;;;3.43;3.00;;;14.10;99.90;;;;;;5107325;28;20209;-76
2021/10/04 02:21:06;;;;;;;2.90;2.70;;;14.10;99.90;;;;;;5106779;28;20201;-76
2021/10/04 02:23:33;;;;;;;3.67;3.37;;;14.10;99.90;;;;;;5109007;28;20260;-76
2021/10/04 02:26:00;;;;;;;3.67;3.37;;;14.00;99.90;;;;;;5109047;28;20212;-76
2021/10/04 02:28:28;;;;;;;3.50;3.20;;;14.00;99.90;;;;;;5106648;28;20197;-76
2021/10/04 02:30:56;;;;;;;3.90;3.60;;;13.90;99.90;;;;;;5107810;27;20689;-76
2021/10/04 02:33:23;;;;;;;3.30;3.10;;;13.90;99.90;;;;;;5106727;28;20585;-76
2021/10/04 02:35:50;;;;;;;3.70;3.40;;;13.90;99.90;;;;;;5109340;28;20249;-74
2021/10/04 02:38:17;;;;;;;3.90;3.60;;;13.80;99.90;;;;;;5109125;28;20203;-76
2021/10/04 02:40:46;;;;;;;4.50;4.10;;;13.80;99.90;;;;;;5103833;28;20639;-76
2021/10/04 02:43:17;;;;;;;5.50;4.27;;;13.80;99.90;;;;;;5107861;27;20209;-76
2021/10/04 02:45:44;;;;;;;5.73;5.13;;;13.80;99.90;;;;;;5105884;28;20359;-76
2021/10/04 02:48:12;;;;;;;5.83;4.80;;;13.70;99.90;;;;;;5107367;28;20208;-76
2021/10/04 02:50:39;;;;;;;5.63;4.43;;;13.70;99.90;;;;;;5107060;28;20216;-78
2021/10/04 02:53:06;;;;;;;5.57;4.63;;;13.60;99.90;;;;;;5106185;28;20244;-76
2021/10/04 02:55:36;;;;;;;5.53;4.70;;;13.60;99.90;;;;;;5106440;28;20204;-76
2021/10/04 02:58:03;;;;;;;4.60;4.20;;;13.60;99.90;;;;;;5105446;28;20279;-76
2021/10/04 03:00:31;;;;;;;8.73;5.03;;;13.60;99.90;;;;;;5111346;28;20195;-81
2021/10/04 03:02:58;;;;;;;5.40;4.63;;;13.50;99.90;;;;;;5108650;28;20806;-81
2021/10/04 03:05:26;;;;;;;5.40;4.40;;;13.50;99.90;;;;;;5101913;28;20227;-81
2021/10/04 03:07:53;;;;;;;5.00;4.03;;;13.50;99.90;;;;;;5103779;28;20204;-82
2021/10/04 03:10:20;;;;;;;4.77;3.90;;;13.40;99.90;;;;;;5111349;28;20197;-81
2021/10/04 03:12:47;;;;;;;3.90;3.60;;;13.40;99.90;;;;;;5105174;28;20703;-81
2021/10/04 03:15:14;;;;;;;4.57;3.93;;;13.40;99.90;;;;;;5105051;28;20206;-81
2021/10/04 03:17:41;;;;;;;3.80;3.37;;;13.40;99.90;;;;;;5108614;28;20507;-81
2021/10/04 03:20:09;;;;;;;4.73;4.10;;;13.40;99.90;;;;;;5104657;28;20204;-80
2021/10/04 03:22:38;;;;;;;3.70;3.33;;;13.40;99.90;;;;;;5095028;28;20254;-81
2021/10/04 03:25:06;;;;;;;3.60;3.30;;;13.50;99.90;;;;;;5106133;28;20687;-81
2021/10/04 03:27:33;;;;;;;3.43;3.23;;;13.50;99.90;;;;;;5110649;27;20218;-81
2021/10/04 03:30:00;;;;;;;3.10;2.80;;;13.50;99.90;;;;;;5111514;28;20529;-82
2021/10/04 03:32:27;;;;;;;3.20;2.97;;;13.50;99.90;;;;;;5112179;28;20216;-82
2021/10/04 03:34:54;;;;;;;5.00;3.00;;;13.50;99.90;;;;;;5110529;28;20328;-82
2021/10/04 03:37:21;;;;;;;3.03;2.83;;;13.50;99.90;;;;;;5113124;27;20210;-82
2021/10/04 03:39:50;;;;;;;3.10;2.90;;;13.50;99.90;;;;;;5111913;28;20196;-82
2021/10/04 03:42:17;;;;;;;3.30;3.00;;;13.50;99.90;;;;;;5112439;27;20220;-82
2021/10/04 03:44:44;;;;;;;3.10;2.90;;;13.40;99.90;;;;;;5108504;28;20384;-82
2021/10/04 03:47:11;;;;;;;3.37;2.97;;;13.40;99.90;;;;;;5110716;28;20222;-82
2021/10/04 03:49:38;;;;;;;3.47;3.17;;;13.40;99.90;;;;;;5104555;27;20216;-81
2021/10/04 03:52:05;;;;;;;3.33;3.03;;;13.30;99.90;;;;;;5114176;27;20234;-81
2021/10/04 03:54:34;;;;;;;3.73;3.27;;;13.30;99.90;;;;;;5114403;27;20190;-81
2021/10/04 03:57:03;;;;;;;5.20;3.50;;;13.30;99.90;;;;;;5117341;27;20569;-82
2021/10/04 03:59:30;;;;;;;3.83;3.43;;;13.30;99.90;;;;;;5099992;28;20204;-81
2021/10/04 04:01:57;;;;;;;5.03;4.07;;;13.20;99.90;;;;;;5110003;28;20287;-81
2021/10/04 04:04:27;;;;;;;4.00;3.60;;;13.20;99.90;;;;;;5109226;28;20204;-81
2021/10/04 04:06:54;;;;;;;5.13;4.63;;;13.20;99.90;;;;;;5109705;28;20200;-81
2021/10/04 04:09:21;;;;;;;4.90;4.40;;;13.10;99.90;;;;;;5102137;28;20203;-81
2021/10/04 04:11:48;;;;;;;5.93;4.87;;;13.10;99.90;;;;;;5116822;27;20204;-81
2021/10/04 04:14:17;;;;;;;4.90;4.40;;;13.00;99.90;;;;;;5107627;28;20200;-81
2021/10/04 04:16:44;;;;;;;6.23;5.47;;;13.00;99.90;;;;;;5109817;28;20744;-81
2021/10/04 04:19:11;;;;;;;6.03;5.10;;;13.00;99.90;;;;;;5109526;28;20669;-80
2021/10/04 04:21:40;;;;;;;5.50;4.40;;;12.90;99.90;;;;;;5107390;28;20295;-81
2021/10/04 04:24:07;;;;;;;4.77;4.20;;;12.90;99.90;;;;;;5109095;28;20203;-81
2021/10/04 04:26:34;;;;;;;4.30;3.90;;;12.90;99.90;;;;;;5111548;27;20188;-80
2021/10/04 04:29:01;;;;;;;5.13;4.63;;;12.90;99.90;;;;;;5108847;27;20291;-81
2021/10/04 04:31:29;;;;;;;4.83;3.53;;;12.90;99.90;;;;;;5104422;27;20196;-81
2021/10/04 04:33:56;;;;;;;3.53;3.23;;;12.90;99.90;;;;;;5110725;28;20216;-81
2021/10/04 04:36:24;;;;;;;3.73;3.43;;;12.90;99.90;;;;;;5098610;28;20760;-81
2021/10/04 04:38:50;;;;;;;4.13;3.77;;;12.90;99.90;;;;;;5114422;27;20200;-82
2021/10/04 04:41:19;;;;;;;7.10;4.70;;;12.90;99.90;;;;;;5101653;28;20636;-82
2021/10/04 04:43:49;;;;;;;5.47;4.37;;;12.90;99.90;;;;;;5107122;28;20212;-82
2021/10/04 04:46:16;;;;;;;4.57;4.17;;;12.90;99.90;;;;;;5108283;28;20690;-81
2021/10/04 04:48:44;;;;;;;4.80;4.30;;;12.90;99.90;;;;;;5109439;27;20285;-81
2021/10/04 04:51:11;;;;;;;5.87;4.70;;;12.90;99.90;;;;;;5096488;27;20208;-81
2021/10/04 04:53:38;;;;;;;5.13;4.63;;;12.90;99.90;;;;;;5109253;27;20338;-81
2021/10/04 04:56:06;;;;;;;5.27;4.77;;;12.90;99.90;;;;;;5108713;28;20664;-81
2021/10/04 04:58:36;;;;;;;5.37;4.77;;;12.90;99.90;;;;;;5112394;27;20667;-82
2021/10/04 05:01:03;;;;;;;9.10;5.20;;;12.90;99.90;;;;;;5108482;27;20196;-81
2021/10/04 05:03:30;;;;;;;5.67;4.90;;;12.80;99.90;;;;;;5111544;27;20230;-81
2021/10/04 05:05:59;;;;;;;4.83;4.33;;;12.80;99.90;;;;;;5111022;27;20192;-82
2021/10/04 05:08:26;;;;;;;4.33;3.93;;;12.80;99.90;;;;;;5103661;27;20207;-81
2021/10/04 05:10:53;;;;;;;5.30;4.67;;;12.80;99.90;;;;;;5109268;28;20204;-81
2021/10/04 05:13:20;;;;;;;4.97;4.23;;;12.90;99.90;;;;;;5109421;27;20216;-82
2021/10/04 05:15:47;;;;;;;3.93;3.60;;;12.80;99.90;;;;;;5107305;27;20208;-82
2021/10/04 05:18:14;;;;;;;3.67;3.37;;;12.90;99.90;;;;;;5108835;28;20561;-82
2021/10/04 05:20:41;;;;;;;3.93;3.53;;;12.90;99.90;;;;;;5106654;28;20272;-81
2021/10/04 05:23:10;;;;;;;5.03;4.33;;;12.90;99.90;;;;;;5107607;28;20195;-81
2021/10/04 05:25:37;;;;;;;5.47;4.50;;;12.90;99.90;;;;;;5108186;28;20568;-81
2021/10/04 05:28:04;;;;;;;4.43;4.03;;;12.90;99.90;;;;;;5108562;28;20553;-82
2021/10/04 05:30:32;;;;;;;4.30;3.90;;;13.00;99.90;;;;;;5107551;28;20203;-82
2021/10/04 05:32:59;;;;;;;7.30;5.33;;;13.00;99.90;;;;;;5110251;28;20265;-82
2021/10/04 05:35:26;;;;;;;5.27;4.33;;;13.00;99.90;;;;;;5108524;28;20212;-81
2021/10/04 05:37:53;;;;;;;5.00;4.50;;;13.00;99.90;;;;;;5110444;28;20215;-82
2021/10/04 05:40:22;;;;;;;4.83;4.43;;;13.10;99.90;;;;;;5110453;27;20200;-81
2021/10/04 05:42:49;;;;;;;5.20;4.17;;;13.10;99.90;;;;;;5108560;28;20665;-82
2021/10/04 05:45:17;;;;;;;6.37;4.70;;;13.10;99.90;;;;;;5106007;28;20238;-82
2021/10/04 05:47:44;;;;;;;5.63;4.80;;;13.10;99.90;;;;;;5107780;28;20529;-81
2021/10/04 05:50:12;;;;;;;6.03;4.20;;;13.10;99.90;;;;;;5109233;27;20666;-81
2021/10/04 05:52:40;;;;;;;7.80;5.87;;;13.10;99.90;;;;;;5110635;27;20231;-81
2021/10/04 05:55:08;;;;;;;6.10;5.30;;;13.10;99.90;;;;;;5110893;27;20734;-81
2021/10/04 05:57:40;;;;;;;5.90;4.73;;;13.10;99.90;;;;;;5108199;28;20292;-81
2021/10/04 06:00:10;;;;;;;5.40;4.60;;;13.10;99.90;;;;;;5106029;28;20195;-81
2021/10/04 06:02:37;;;;;;;4.97;4.27;;;13.10;99.90;;;;;;5109257;28;20235;-81
2021/10/04 06:05:04;;;;;;;4.93;4.37;;;13.10;99.90;;;;;;5113339;27;20203;-81
2021/10/04 06:07:31;;;;;;;4.20;3.80;;;13.10;99.90;;;;;;5107440;28;20225;-81
2021/10/04 06:09:58;;;;;;;3.90;3.60;;;13.20;99.90;;;;;;5106999;28;20200;-81
2021/10/04 06:12:27;;;;;;;4.30;3.90;;;13.20;99.90;;;;;;5106957;28;20197;-81
2021/10/04 06:14:56;;;;;;;4.73;4.30;;;13.30;99.90;;;;;;5105736;28;20208;-82
2021/10/04 06:17:24;;;;;;;5.33;4.20;;;13.30;99.90;;;;;;5100663;28;20196;-79
2021/10/04 06:19:51;;;;;;;4.37;3.90;;;13.30;99.90;;;;;;5099531;28;21518;-81
2021/10/04 06:22:20;;;;;;;5.33;4.67;;;13.30;99.90;;;;;;5101053;28;20671;-80
2021/10/04 06:24:47;;;;;;;4.60;4.17;;;13.40;99.90;;;;;;5103128;28;20637;-80
2021/10/04 06:27:14;;;;;;;5.33;4.30;;;13.40;99.90;;;;;;5102987;28;20192;-80
2021/10/04 06:29:42;;;;;;;5.53;4.97;;;13.50;99.90;;;;;;5101173;28;20196;-81
2021/10/04 06:32:10;;;;;;;4.87;4.37;;;13.50;99.90;;;;;;5106333;28;20208;-81
2021/10/04 06:34:37;;;;;;;7.37;5.30;;;13.50;99.90;;;;;;5103077;28;20220;-79
2021/10/04 06:37:05;;;;;;;7.83;5.50;;;13.50;99.90;;;;;;5098951;28;20212;-80
2021/10/04 06:39:32;;;;;;;7.50;5.87;;;13.50;99.90;;;;;;5104128;28;20230;-81
2021/10/04 06:42:01;;;;;;;7.47;5.57;;;13.60;99.90;;;;;;5103139;28;20267;-80
2021/10/04 06:44:32;;;;;;;7.77;6.20;;;13.60;99.90;;;;;;5096534;28;20192;-80
2021/10/04 06:47:00;;;;;;;5.80;5.10;;;13.60;99.90;;;;;;5100911;28;20192;-80
2021/10/04 06:49:28;;;;;;;6.97;5.40;;;13.60;99.90;;;;;;5101532;28;20208;-81
2021/10/04 06:51:55;;;;;;;4.50;4.10;;;13.70;99.90;;;;;;5105674;28;20600;-82
2021/10/04 06:54:22;;;;;;;5.43;4.80;;;13.80;99.90;;;;;;5102247;28;20303;-82
2021/10/04 06:56:49;;;;;;;7.33;5.47;;;13.50;99.90;;;;;;5103288;28;20654;-81
2021/10/04 06:59:16;;;;;;;7.00;5.43;;;13.90;99.90;;;;;;5098838;28;20231;-81
2021/10/04 07:01:44;;;;;;;4.83;4.13;;;14.00;99.90;;;;;;5106836;27;20205;-84
2021/10/04 07:04:11;;;;;;;6.50;5.27;;;14.10;99.90;;;;;;5103673;28;20220;-83
2021/10/04 07:06:39;;;;;;;4.97;4.47;;;14.30;99.90;;;;;;5103460;28;20200;-79
2021/10/04 07:09:12;;;;;;;4.50;4.10;;;14.50;99.90;;;;;;5105528;27;20189;-81
2021/10/04 07:11:39;;;;;;;5.07;4.50;;;14.80;99.90;;;;;;5103074;28;20378;-81
2021/10/04 07:14:06;;;;;;;4.10;3.80;;;14.90;99.90;;;;;;5104052;27;20233;-80
2021/10/04 07:16:33;;;;;;;6.07;4.77;;;15.00;99.90;;;;;;5105957;27;20661;-80
2021/10/04 07:19:03;;;;;;;5.30;4.50;;;15.20;99.90;;;;;;5109113;27;20552;-84
2021/10/04 07:21:30;;;;;;;4.77;4.30;;;15.40;99.90;;;;;;5104543;27;20199;-81
2021/10/04 07:23:59;;;;;;;5.13;4.63;;;15.70;99.90;;;;;;5106919;28;20221;-82
2021/10/04 07:26:26;;;;;;;7.23;5.53;;;16.00;99.90;;;;;;5104456;27;20233;-81
2021/10/04 07:28:53;;;;;;;5.60;4.83;;;16.40;99.90;;;;;;5107640;27;20302;-85
2021/10/04 07:31:26;;;;;;;6.47;5.23;;;16.90;99.90;;;;;;5109331;27;20198;-83
2021/10/04 07:33:54;;;;;;;4.93;4.37;;;17.50;99.90;;;;;;5105438;28;20221;-82
2021/10/04 07:36:21;;;;;;;4.50;4.10;;;18.50;99.90;;;;;;5104330;28;20264;-83
2021/10/04 07:38:47;;;;;;;4.90;3.90;;;19.20;99.90;;;;;;5101833;27;20205;-83
2021/10/04 07:41:16;;;;;;;11.88;5.10;;;19.80;99.90;;;;;;5098129;27;20217;-84
2021/10/04 07:43:43;;;;;;;5.40;4.90;;;20.40;99.90;;;;;;5084338;28;20191;-84
2021/10/04 07:46:10;;;;;;;5.60;5.10;;;20.60;99.90;;;;;;5103605;27;20329;-81
2021/10/04 07:48:40;;;;;;;5.90;5.30;;;20.80;99.90;;;;;;5105123;27;20222;-81
2021/10/04 07:51:07;;;;;;;8.50;6.47;;;20.90;99.90;;;;;;5106309;28;20195;-85
2021/10/04 07:53:36;;;;;;;8.68;6.55;;;21.00;99.90;;;;;;5119516;27;20312;-81
2021/10/04 07:56:04;;;;;;;6.10;5.25;;;21.00;99.90;;;;;;5105298;27;20218;-83
2021/10/04 07:58:32;;;;;;;7.68;5.47;;;21.10;99.90;;;;;;5103203;27;20222;-85
2021/10/04 08:00:59;;;;;;;8.27;5.78;;;21.10;99.60;;;;;;5105579;28;20357;-87
2021/10/04 08:03:26;;;;;;;5.22;4.72;;;21.30;99.30;;;;;;5102939;28;20231;-86
2021/10/04 08:05:53;;;;;;;5.88;5.13;;;21.80;99.00;;;;;;5103896;27;20196;-81
2021/10/04 08:08:20;;;;;;;6.60;5.25;;;22.30;97.90;;;;;;5105445;27;20199;-82
2021/10/04 08:10:48;;;;;;;8.57;5.70;;;22.30;97.10;;;;;;5101573;28;20652;-79
2021/10/04 08:13:15;;;;;;;6.00;5.18;;;22.10;96.60;;;;;;5102209;28;20235;-81
2021/10/04 08:15:43;;;;;;;5.55;4.65;;;21.90;96.80;;;;;;5099609;27;20188;-81
2021/10/04 08:18:10;;;;;;;6.00;4.90;;;21.80;96.90;;;;;;5100188;27;20209;-82
2021/10/04 08:20:38;;;;;;;6.18;4.70;;;21.70;96.60;;;;;;5102167;28;20546;-82
2021/10/04 08:23:05;;;;;;;4.97;4.03;;;21.70;96.70;;;;;;5102369;27;20256;-82
2021/10/04 08:25:32;;;;;;;5.07;4.57;;;21.90;96.70;;;;;;5103173;27;20607;-82
2021/10/04 08:27:59;;;;;;;6.13;4.90;;;22.60;96.30;;;;;;5103848;27;20192;-80
2021/10/04 08:30:26;;;;;;;9.00;5.80;;;23.10;95.20;;;;;;5104885;28;20223;-80
2021/10/04 08:32:55;;;;;;;6.38;5.63;;;23.30;94.00;;;;;;5102241;28;20195;-84
2021/10/04 08:35:24;;;;;;;8.13;5.95;;;23.50;93.40;;;;;;5104533;28;20301;-82
2021/10/04 08:37:52;;;;;;;6.88;5.43;;;23.90;92.70;;;;;;5105116;27;20199;-86
2021/10/04 08:40:20;;;;;;;6.95;6.20;;;24.20;92.20;;;;;;5110741;27;20210;-83
2021/10/04 08:42:47;;;;;;;8.30;5.75;;;24.50;91.30;;;;;;5101070;28;20549;-84
2021/10/04 08:45:15;;;;;;;7.65;5.90;;;24.70;90.70;;;;;;5102347;27;20290;-84
2021/10/04 08:47:52;;;;;;;6.57;5.57;;;25.00;89.90;;;;;;5106034;27;20261;-85
2021/10/04 08:50:24;;;;;;;6.00;4.97;;;25.40;88.30;;;;;;5101138;27;20665;-82
2021/10/04 08:52:51;;;;;;;6.55;4.90;;;25.70;86.50;;;;;;5100849;28;20613;-85
2021/10/04 08:55:20;;;;;;;4.78;4.30;;;26.10;85.70;;;;;;5098662;27;20228;-85
2021/10/04 09:01:33;;;;;;;10.50;4.60;;;27.40;81.40;;;;;;4983926;28;20208;-84
2021/10/04 09:10:55;;;;;;;5.75;5.10;;;28.70;71.30;;;;;;4904029;29;20289;-86
2021/10/04 09:13:50;;;;;;;5.35;4.85;;;28.20;71.50;;;;;;4884575;29;20333;-84
2021/10/04 09:16:23;;;;;;;5.30;4.68;;;27.40;72.10;;;;;;4885637;29;20612;-87
2021/10/04 09:18:54;;;;;;;7.68;5.13;;;27.20;73.00;;;;;;4904177;29;20306;-84
2021/10/04 09:21:21;;;;;;;6.57;4.45;;;26.40;73.10;;;;;;4902960;29;20296;-86
2021/10/04 09:23:52;;;;;;;5.45;4.93;;;25.90;73.90;;;;;;4899232;29;20730;-86
2021/10/04 09:26:47;;;;;;;4.68;4.10;;;25.50;74.40;;;;;;4887687;29;20301;-84
2021/10/04 09:29:47;;;;;;;7.75;5.82;;;25.20;75.40;;;;;;4884487;29;20210;-83
2021/10/04 09:32:21;;;;;;;6.18;5.00;;;24.90;76.30;;;;;;4899336;29;20234;-83
2021/10/04 09:35:16;;;;;;;4.57;4.18;;;24.60;75.90;;;;;;4955227;28;20249;-85
2021/10/04 09:37:45;;;;;;;5.15;4.38;;;24.40;76.60;;;;;;5039062;27;20196;-86
2021/10/04 09:40:35;;;;;;;5.35;4.53;;;24.10;76.90;;;;;;5102129;28;20277;-82
2021/10/04 09:43:06;;;;;;;5.65;4.50;;;23.30;76.80;;;;;;5100400;27;20418;-84
2021/10/04 09:45:35;;;;;;;4.28;3.88;;;23.80;77.90;;;;;;5103007;27;20275;-86
2021/10/04 09:48:13;;;;;;;4.00;3.63;;;23.60;78.40;;;;;;5104520;27;20575;-86
2021/10/04 09:50:42;;;;;;;5.07;4.55;;;23.60;78.90;;;;;;5102566;27;20234;-85
2021/10/04 09:53:15;;;;;;;6.10;5.18;;;23.40;79.20;;;;;;5099287;27;20985;-87
2021/10/04 09:55:47;;;;;;;5.78;4.63;;;23.30;79.20;;;;;;5107168;27;20303;-86
2021/10/04 09:58:17;;;;;;;7.18;6.03;;;23.10;79.60;;;;;;5099192;27;20655;-83
2021/10/04 10:00:50;;;;;;;5.43;4.90;;;23.00;80.10;;;;;;5106053;27;20228;-84
2021/10/04 10:03:19;;;;;;;9.35;7.50;;;22.80;80.60;;;;;;5105218;27;20231;-84
2021/10/04 10:05:53;;;;;;;7.32;5.25;;;22.70;81.10;;;;;;5102521;28;20837;-84
2021/10/04 10:08:24;;;;;;;6.70;5.32;;;22.50;81.50;;;;;;5106336;27;20203;-86
2021/10/04 10:10:56;;;;;;;8.13;5.47;;;22.30;82.40;;;;;;5114240;27;20219;-83
2021/10/04 10:13:28;;;;;;;5.68;5.10;;;22.10;82.80;;;;;;5098144;27;20203;-85
2021/10/04 10:16:02;;;;;;;5.35;4.85;;;22.00;83.30;;;;;;5102306;27;20512;-82
2021/10/04 10:18:35;;;;;;;5.47;4.97;;;21.90;83.60;;;;;;5106919;27;20203;-83
2021/10/04 10:21:06;;;;;;;5.53;5.03;;;21.80;84.10;;;;;;5105140;27;20198;-82
2021/10/04 10:23:44;;;;;;;8.02;5.50;;;21.80;84.90;;;;;;5101780;27;20217;-82
2021/10/04 10:26:27;;;;;;;5.55;5.00;;;21.60;85.20;;;;;;5099148;28;20839;-84
2021/10/04 10:29:23;;;;;;;7.35;4.97;;;21.50;85.80;;;;;;5098483;27;20376;-86
2021/10/04 10:32:20;;;;;;;6.03;4.97;;;21.40;86.20;;;;;;5101025;28;20544;-81
2021/10/04 10:34:49;;;;;;;7.65;6.50;;;21.30;86.90;;;;;;5100828;28;20212;-75
2021/10/04 10:37:18;;;;;;;7.10;5.60;;;21.30;87.40;;;;;;5096635;28;20199;-77
2021/10/04 10:39:47;;;;;;;7.28;5.90;;;21.20;87.80;;;;;;5095508;28;20188;-76
2021/10/04 10:42:17;;;;;;;9.02;5.93;;;21.20;88.30;;;;;;5105417;27;20191;-76
2021/10/04 10:45:11;;;;;;;7.18;6.15;;;21.10;89.10;;;;;;5102654;28;20184;-76
2021/10/04 10:48:05;;;;;;;6.10;5.15;;;21.00;88.80;;;;;;5094862;28;20195;-76
2021/10/04 10:50:35;;;;;;;8.35;6.40;;;21.00;89.10;;;;;;5049997;28;20202;-75
2021/10/04 10:53:07;;;;;;;8.98;7.15;;;21.10;89.60;;;;;;5041486;28;20197;-76
2021/10/04 10:55:36;;;;;;;8.13;6.78;;;21.10;89.70;;;;;;5055912;28;20225;-76
2021/10/04 10:58:07;;;;;;;7.80;6.55;;;21.10;89.90;;;;;;5054175;28;20212;-76
2021/10/04 11:00:37;;;;;;;9.65;7.18;;;21.10;90.00;;;;;;5047471;28;20254;-76
2021/10/04 11:03:07;;;;;;;7.65;6.70;;;21.10;90.10;;;;;;5042383;28;20254;-84
2021/10/04 11:05:56;;;;;;;11.05;7.93;;;21.10;90.20;;;;;;5044779;28;20216;-88
2021/10/04 11:08:55;;;;;;;8.15;6.80;;;21.10;90.20;;;;;;5051931;28;20735;-85
2021/10/04 11:11:27;;;;;;;7.43;6.05;;;21.10;90.20;;;;;;5058060;28;20219;-83
2021/10/04 11:14:00;;;;;;;5.87;5.27;;;21.10;90.30;;;;;;5043353;28;20479;-84
2021/10/04 11:16:35;;;;;;;7.18;5.40;;;21.10;90.70;;;;;;5042751;28;20346;-83
2021/10/04 11:19:04;;;;;;;8.15;6.00;;;21.10;90.50;;;;;;5042193;28;20219;-84
2021/10/04 11:21:32;;;;;;;7.63;5.88;;;21.10;90.50;;;;;;5059014;28;20201;-87
2021/10/04 11:24:02;;;;;;;10.50;6.50;;;21.00;90.40;;;;;;5040119;28;20633;-84
2021/10/04 11:26:29;;;;;;;8.55;6.30;;;21.10;90.50;;;;;;5072262;28;20211;-83
2021/10/04 11:28:58;;;;;;;8.32;6.93;;;21.00;90.50;;;;;;5099646;28;20187;-86
2021/10/04 11:31:27;;;;;;;7.40;6.20;;;21.00;90.60;;;;;;5100055;28;20216;-84
2021/10/04 11:33:58;;;;;;;6.20;5.50;;;21.00;90.80;;;;;;5099842;28;20315;-83
2021/10/04 11:36:27;;;;;;;9.13;5.00;;;21.00;90.90;;;;;;5103073;28;20222;-87
2021/10/04 11:39:07;;;;;;;6.10;5.32;;;21.00;90.90;;;;;;5103921;28;20204;-84
2021/10/04 11:41:37;;;;;;;5.82;5.07;;;21.00;91.00;;;;;;5102545;28;20206;-84
2021/10/04 11:44:06;;;;;;;5.80;4.82;;;21.00;91.00;;;;;;5101254;28;20207;-88
2021/10/04 11:46:35;;;;;;;5.75;4.68;;;21.00;91.10;;;;;;5101070;28;20220;-84
2021/10/04 11:49:06;;;;;;;5.38;4.55;;;21.00;91.50;;;;;;5095264;27;20748;-81
2021/10/04 11:51:38;;;;;;;5.65;5.10;;;21.00;91.40;;;;;;5101864;28;20199;-81
2021/10/04 11:54:05;;;;;;;9.88;5.90;;;21.00;91.40;;;;;;5108811;27;20210;-81
2021/10/04 11:59:22;;;;;;;6.78;4.57;;;21.10;91.70;;;;;;5106075;27;20272;-82
2021/10/04 12:01:54;;;;;;;6.03;5.43;;;21.20;91.90;;;;;;5105074;27;20204;-82
2021/10/04 12:04:23;;;;;;;6.30;5.63;;;21.20;91.60;;;;;;5104472;27;20207;-84
2021/10/04 12:06:54;;;;;;;8.77;5.15;;;21.40;91.50;;;;;;5105862;27;20295;-83
2021/10/04 12:09:22;;;;;;;6.03;5.32;;;21.50;91.40;;;;;;5109821;27;20669;-86
2021/10/04 12:11:54;;;;;;;5.15;4.70;;;21.50;91.30;;;;;;5103673;27;20718;-87
2021/10/04 12:14:26;;;;;;;6.25;4.90;;;21.60;91.20;;;;;;5103261;27;20861;-83
2021/10/04 12:16:59;;;;;;;4.78;4.28;;;21.70;91.20;;;;;;5097742;27;20211;-82
2021/10/04 12:19:28;;;;;;;5.72;4.82;;;21.70;91.10;;;;;;5106563;27;20210;-83
2021/10/04 12:21:56;;;;;;;10.85;5.80;;;21.80;91.00;;;;;;5100467;28;20668;-83
2021/10/04 12:24:26;;;;;;;6.60;5.13;;;21.90;90.90;;;;;;5104973;28;20256;-83
2021/10/04 12:26:59;;;;;;;6.93;5.80;;;21.90;90.80;;;;;;5111231;27;20726;-83
2021/10/04 12:29:33;;;;;;;5.60;5.03;;;22.00;90.80;;;;;;5097760;27;20228;-83
2021/10/04 12:32:16;;;;;;;10.30;6.22;;;22.00;90.70;;;;;;5103290;28;20195;-86
2021/10/04 12:35:06;;;;;;;7.63;5.50;;;21.90;90.70;;;;;;5106399;27;20868;-83
2021/10/04 12:37:33;;;;;;;4.72;4.32;;;21.90;90.90;;;;;;5104254;27;20607;-84
2021/10/04 12:40:00;;;;;;;4.18;3.78;;;21.80;91.00;;;;;;5101108;27;20287;-84
2021/10/04 12:42:28;;;;;;;4.75;4.32;;;21.80;91.00;;;;;;5105511;27;20647;-85
2021/10/04 12:44:58;;;;;;;6.10;4.80;;;21.80;91.10;;;;;;5107557;27;20245;-84
2021/10/04 12:47:27;;;;;;;7.18;5.00;;;21.80;91.10;;;;;;5105773;27;20214;-84
2021/10/04 12:49:57;;;;;;;5.50;5.00;;;21.90;91.20;;;;;;5099536;27;20239;-81
2021/10/04 12:52:27;;;;;;;9.20;7.40;;;21.90;91.20;;;;;;5102248;27;21002;-74
2021/10/04 12:54:57;;;;;;;9.30;6.13;;;21.90;91.60;;;;;;5102952;27;20208;-75
2021/10/04 12:57:26;;;;;;;6.60;5.88;;;22.00;91.50;;;;;;5098792;28;20254;-73
2021/10/04 12:59:58;;;;;;;4.93;4.53;;;22.10;91.30;;;;;;5103364;27;20484;-74
2021/10/04 13:02:26;;;;;;;4.72;4.32;;;22.20;91.30;;;;;;5103640;27;20231;-74
2021/10/04 13:04:56;;;;;;;6.75;5.15;;;22.30;91.20;;;;;;5107006;27;20200;-75
2021/10/04 13:07:26;;;;;;;5.55;4.80;;;22.30;91.10;;;;;;5105727;27;20263;-74
2021/10/04 13:09:53;;;;;;;6.78;5.20;;;22.20;91.00;;;;;;5105146;27;20400;-74